Time;durP1;ratioP1;P1;durP2;ratioP2;P2;SDS_P1;SDS_P2;PMS_P1;PMS_P2;Temp;Humidity;BMP_temperature;BMP_pressure;BME280_temperature;BME280_humidity;BME280_pressure;Samples;Min_cycle;Max_cycle;Signal;HPM_P1;HPM_P2
2021/06/02 00:00:02;;;;;;;5.35;2.70;;;;;;;9.65;100.00;95775.38;1057144;28;20238;-49
2021/06/02 00:00:42;;;;;;;4.50;2.53;;;;;;;9.75;100.00;95797.31;1056945;28;20028;-50
2021/06/02 00:01:23;;;;;;;6.22;2.92;;;;;;;9.73;100.00;95799.22;1057038;28;20246;-50
2021/06/02 00:02:03;;;;;;;7.85;2.80;;;;;;;9.70;100.00;95797.66;1056933;28;20275;-49
2021/06/02 00:02:46;;;;;;;5.38;2.50;;;;;;;9.70;100.00;95788.94;1056871;28;20253;-51
2021/06/02 00:03:30;;;;;;;6.70;2.83;;;;;;;9.70;100.00;95795.03;1056547;28;20117;-50
2021/06/02 00:04:10;;;;;;;4.63;2.70;;;;;;;9.67;100.00;95794.41;1056683;28;20334;-51
2021/06/02 00:04:51;;;;;;;7.22;2.90;;;;;;;9.63;100.00;95792.94;1056538;28;20266;-50
2021/06/02 00:05:22;;;;;;;6.55;2.72;;;;;;;9.64;100.00;95792.00;1056391;28;20599;-51
2021/06/02 00:06:01;;;;;;;5.18;2.78;;;;;;;9.63;100.00;95790.31;1056867;28;20015;-48
2021/06/02 00:06:32;;;;;;;7.88;2.67;;;;;;;9.58;100.00;95789.81;1056967;28;20390;-50
2021/06/02 00:07:06;;;;;;;3.95;2.63;;;;;;;9.56;100.00;95791.69;1054724;28;20277;-49
2021/06/02 00:07:37;;;;;;;4.35;2.58;;;;;;;9.56;100.00;95789.91;1052834;28;20624;-50
2021/06/02 00:08:09;;;;;;;8.23;3.10;;;;;;;9.55;100.00;95790.84;1052859;28;20261;-49
2021/06/02 00:08:39;;;;;;;4.05;2.65;;;;;;;9.55;100.00;95785.59;1052772;28;20039;-51
2021/06/02 00:09:10;;;;;;;6.07;2.70;;;;;;;9.54;100.00;95784.78;1052626;28;20266;-52
2021/06/02 00:09:40;;;;;;;4.68;2.75;;;;;;;9.54;100.00;95786.56;1052726;28;20016;-50
2021/06/02 00:10:12;;;;;;;4.10;2.38;;;;;;;9.57;100.00;95785.50;1052753;28;20052;-50
2021/06/02 00:10:42;;;;;;;5.57;3.10;;;;;;;9.55;100.00;95783.00;1052876;28;20390;-50
2021/06/02 00:11:13;;;;;;;5.00;2.70;;;;;;;9.51;100.00;95782.38;1052600;28;20234;-51
2021/06/02 00:11:43;;;;;;;7.13;3.05;;;;;;;9.50;100.00;95785.13;1052845;28;20550;-49
2021/06/02 00:12:14;;;;;;;7.18;3.15;;;;;;;9.48;100.00;95784.38;1052753;28;20481;-52
2021/06/02 00:12:45;;;;;;;5.75;2.95;;;;;;;9.46;100.00;95787.09;1052864;28;20370;-50
2021/06/02 00:13:16;;;;;;;6.43;2.72;;;;;;;9.50;100.00;95785.13;1052510;28;20020;-50
2021/06/02 00:13:47;;;;;;;4.93;2.95;;;;;;;9.52;100.00;95780.59;1052549;28;20023;-50
2021/06/02 00:14:18;;;;;;;6.22;2.53;;;;;;;9.48;100.00;95785.22;1052793;28;20277;-50
2021/06/02 00:14:49;;;;;;;5.63;2.83;;;;;;;9.48;100.00;95779.97;1052873;28;20020;-50
2021/06/02 00:15:19;;;;;;;5.20;2.70;;;;;;;9.52;100.00;95780.59;1052653;28;20875;-49
2021/06/02 00:15:50;;;;;;;4.43;2.75;;;;;;;9.49;100.00;95780.81;1052890;28;20055;-50
2021/06/02 00:16:20;;;;;;;5.15;2.92;;;;;;;9.49;100.00;95779.03;1052727;28;20012;-52
2021/06/02 00:16:52;;;;;;;8.30;3.20;;;;;;;9.47;100.00;95780.09;1052871;28;20019;-49
2021/06/02 00:17:22;;;;;;;7.78;3.13;;;;;;;9.45;100.00;95774.94;1052622;28;20024;-52
2021/06/02 00:17:53;;;;;;;11.85;3.53;;;;;;;9.44;100.00;95777.66;1052774;28;20238;-51
2021/06/02 00:18:24;;;;;;;5.00;3.13;;;;;;;9.44;100.00;95780.28;1052684;28;20492;-51
2021/06/02 00:18:54;;;;;;;5.20;2.90;;;;;;;9.41;100.00;95781.34;1052789;28;20024;-51
2021/06/02 00:19:25;;;;;;;4.72;2.60;;;;;;;9.42;100.00;95780.41;1052599;28;20039;-50
2021/06/02 00:19:56;;;;;;;5.40;2.97;;;;;;;9.38;100.00;95776.31;1052772;28;20190;-50
2021/06/02 00:20:26;;;;;;;5.28;2.85;;;;;;;9.27;100.00;95755.28;1052784;28;20040;-50
2021/06/02 00:20:57;;;;;;;7.97;2.90;;;;;;;9.38;100.00;95778.91;1052846;28;20023;-50
2021/06/02 00:21:28;;;;;;;5.97;2.80;;;;;;;9.39;100.00;95774.56;1052544;28;20036;-49
2021/06/02 00:22:00;;;;;;;5.15;2.72;;;;;;;9.37;100.00;95787.72;1052806;28;20018;-50
2021/06/02 00:22:30;;;;;;;6.22;3.10;;;;;;;9.39;100.00;95777.16;1052773;28;20070;-50
2021/06/02 00:23:01;;;;;;;7.78;3.35;;;;;;;9.40;100.00;95781.44;1052751;28;20682;-50
2021/06/02 00:23:31;;;;;;;5.63;2.95;;;;;;;9.38;100.00;95776.31;1052282;28;20026;-49
2021/06/02 00:24:02;;;;;;;6.88;3.00;;;;;;;9.37;100.00;95774.66;1052721;28;20032;-50
2021/06/02 00:24:32;;;;;;;6.38;2.90;;;;;;;9.33;100.00;95781.03;1052854;28;20412;-48
2021/06/02 00:25:05;;;;;;;5.82;2.85;;;;;;;9.26;100.00;95779.78;1052883;28;20016;-49
2021/06/02 00:25:35;;;;;;;6.55;2.60;;;;;;;9.25;100.00;95784.19;1052568;28;20107;-49
2021/06/02 00:26:06;;;;;;;6.05;3.17;;;;;;;9.25;100.00;95775.47;1052792;28;20749;-51
2021/06/02 00:26:37;;;;;;;6.30;2.67;;;;;;;9.23;100.00;95778.19;1052670;28;20381;-49
2021/06/02 00:27:10;;;;;;;5.55;3.13;;;;;;;9.22;100.00;95775.69;1052795;28;20050;-50
2021/06/02 00:27:41;;;;;;;4.65;2.80;;;;;;;9.23;100.00;95774.75;1054395;28;20402;-50
2021/06/02 00:28:12;;;;;;;7.10;3.40;;;;;;;9.21;100.00;95771.41;1056960;28;20263;-50
2021/06/02 00:28:42;;;;;;;5.65;2.75;;;;;;;9.18;100.00;95785.53;1057059;28;20023;-49
2021/06/02 00:29:13;;;;;;;4.95;2.83;;;;;;;9.17;100.00;95773.38;1056862;28;20020;-51
2021/06/02 00:29:44;;;;;;;5.93;3.08;;;;;;;9.02;100.00;95746.50;1056638;28;20057;-49
2021/06/02 00:30:15;;;;;;;4.75;2.80;;;;;;;9.15;100.00;95775.25;1056663;28;20019;-51
2021/06/02 00:30:46;;;;;;;4.68;3.17;;;;;;;9.14;100.00;95771.81;1056941;28;20254;-49
2021/06/02 00:31:17;;;;;;;8.13;3.42;;;;;;;9.14;100.00;95770.97;1056908;28;20241;-50
2021/06/02 00:31:47;;;;;;;5.65;2.95;;;;;;;9.11;100.00;95769.41;1056971;28;20052;-49
2021/06/02 00:32:19;;;;;;;7.00;2.90;;;;;;;9.08;100.00;95774.00;1056739;28;20433;-51
2021/06/02 00:32:50;;;;;;;4.50;3.03;;;;;;;9.09;100.00;95770.47;1056904;28;20019;-50
2021/06/02 00:33:21;;;;;;;4.75;3.00;;;;;;;9.10;100.00;95772.97;1056790;28;20674;-49
2021/06/02 00:33:53;;;;;;;6.32;3.33;;;;;;;9.10;100.00;95764.28;1056643;28;20020;-51
2021/06/02 00:34:24;;;;;;;5.90;3.22;;;;;;;9.07;100.00;95773.16;1056655;28;20746;-50
2021/06/02 00:34:55;;;;;;;5.70;3.10;;;;;;;9.05;100.00;95767.22;1053471;28;20330;-50
2021/06/02 00:35:25;;;;;;;5.03;3.38;;;;;;;9.05;100.00;95772.44;1052686;28;20045;-50
2021/06/02 00:35:56;;;;;;;5.78;2.88;;;;;;;9.04;100.00;95769.91;1052568;28;20490;-51
2021/06/02 00:36:27;;;;;;;7.07;2.83;;;;;;;9.03;100.00;95769.09;1052470;28;20085;-49
2021/06/02 00:36:59;;;;;;;6.90;3.17;;;;;;;9.03;100.00;95773.47;1052629;28;20023;-53
2021/06/02 00:37:29;;;;;;;4.82;3.33;;;;;;;9.03;100.00;95768.22;1052697;28;20504;-50
2021/06/02 00:38:00;;;;;;;5.03;3.00;;;;;;;9.04;100.00;95769.91;1052685;28;20262;-50
2021/06/02 00:38:31;;;;;;;7.97;3.80;;;;;;;9.03;100.00;95765.63;1052599;28;20032;-51
2021/06/02 00:39:02;;;;;;;6.50;3.13;;;;;;;9.00;100.00;95768.47;1052633;28;20028;-51
2021/06/02 00:39:33;;;;;;;4.75;3.10;;;;;;;9.00;100.00;95763.22;1052682;28;20020;-49
2021/06/02 00:40:05;;;;;;;5.53;3.40;;;;;;;9.00;100.00;95769.28;1052724;28;20254;-49
2021/06/02 00:40:44;;;;;;;4.78;2.80;;;;;;;9.02;100.00;95767.41;1052478;28;20756;-51
2021/06/02 00:41:15;;;;;;;7.80;3.40;;;;;;;9.05;100.00;95766.38;1052630;28;20247;-49
2021/06/02 00:41:47;;;;;;;5.78;3.53;;;;;;;9.04;100.00;95764.69;1052591;28;20257;-50
2021/06/02 00:42:17;;;;;;;6.25;3.15;;;;;;;9.04;100.00;95768.13;1052558;28;20119;-51
2021/06/02 00:42:48;;;;;;;6.32;3.60;;;;;;;9.05;100.00;95759.38;1052511;28;20650;-50
2021/06/02 00:43:19;;;;;;;4.82;3.05;;;;;;;9.02;100.00;95762.19;1052493;28;20473;-49
2021/06/02 00:43:50;;;;;;;8.80;3.53;;;;;;;9.02;100.00;95766.59;1052448;28;20028;-50
2021/06/02 00:44:21;;;;;;;6.47;3.28;;;;;;;9.02;100.00;95772.63;1052612;28;20242;-49
2021/06/02 00:44:51;;;;;;;6.18;3.33;;;;;;;9.01;100.00;95770.97;1052470;28;20439;-51
2021/06/02 00:45:22;;;;;;;4.38;3.00;;;;;;;9.00;100.00;95761.44;1052559;28;20386;-50
2021/06/02 00:45:53;;;;;;;5.63;3.33;;;;;;;9.02;100.00;95763.97;1052527;28;20093;-50
2021/06/02 00:46:23;;;;;;;9.18;3.53;;;;;;;9.03;100.00;95763.00;1052436;28;20111;-50
2021/06/02 00:46:56;;;;;;;5.90;2.97;;;;;;;9.01;100.00;95765.75;1052647;28;20020;-51
2021/06/02 00:47:27;;;;;;;6.05;3.20;;;;;;;9.05;100.00;95772.44;1054847;28;20024;-49
2021/06/02 00:47:58;;;;;;;6.13;3.20;;;;;;;9.04;100.00;95770.75;1056914;28;20270;-50
2021/06/02 00:48:29;;;;;;;6.35;3.10;;;;;;;9.04;100.00;95770.75;1056847;28;20023;-50
2021/06/02 00:49:01;;;;;;;5.53;3.42;;;;;;;9.02;100.00;95769.19;1056678;28;20249;-49
2021/06/02 00:49:32;;;;;;;5.20;3.42;;;;;;;8.99;100.00;95770.25;1056899;28;20444;-48
2021/06/02 00:50:03;;;;;;;9.05;3.88;;;;;;;8.96;100.00;95762.59;1056756;28;20268;-50
2021/06/02 00:50:33;;;;;;;6.07;3.15;;;;;;;8.97;100.00;95766.88;1056781;28;20011;-51
2021/06/02 00:51:04;;;;;;;8.55;3.30;;;;;;;8.98;100.00;95765.13;1056659;28;20269;-50
2021/06/02 00:51:35;;;;;;;7.28;3.40;;;;;;;9.01;100.00;95765.75;1056938;28;20042;-49
2021/06/02 00:52:07;;;;;;;6.78;3.28;;;;;;;9.03;100.00;95763.00;1056917;28;20023;-50
2021/06/02 00:52:38;;;;;;;5.05;3.40;;;;;;;9.01;100.00;95762.28;1056743;28;20810;-50
2021/06/02 00:53:09;;;;;;;7.32;3.70;;;;;;;9.01;100.00;95770.97;1056685;28;20264;-49
2021/06/02 00:53:39;;;;;;;8.25;3.42;;;;;;;9.01;100.00;95765.75;1056509;28;20034;-49
2021/06/02 00:54:10;;;;;;;6.88;3.70;;;;;;;8.99;100.00;95765.03;1056343;27;20042;-51
2021/06/02 00:54:41;;;;;;;11.55;3.83;;;;;;;9.00;100.00;95769.28;1048461;28;20023;-50
2021/06/02 00:55:11;;;;;;;5.95;3.63;;;;;;;8.99;100.00;95764.16;1048240;28;20020;-50
2021/06/02 00:55:42;;;;;;;6.88;3.72;;;;;;;8.98;100.00;95765.13;1048351;28;20026;-50
2021/06/02 00:56:13;;;;;;;8.35;3.42;;;;;;;8.99;100.00;95764.16;1048383;28;20448;-49
2021/06/02 00:56:49;;;;;;;5.80;3.28;;;;;;;8.98;100.00;95768.56;1048506;28;20013;-50
2021/06/02 00:57:20;;;;;;;4.82;3.35;;;;;;;8.96;100.00;95767.81;1048348;28;20005;-50
2021/06/02 00:57:53;;;;;;;7.30;3.35;;;;;;;8.95;100.00;95760.91;1048344;28;20243;-50
2021/06/02 00:58:27;;;;;;;8.52;3.50;;;;;;;8.93;100.00;95760.19;1056365;28;20091;-50
2021/06/02 00:58:59;;;;;;;5.70;3.42;;;;;;;8.90;100.00;95766.47;1056681;28;20302;-50
2021/06/02 00:59:34;;;;;;;8.68;3.50;;;;;;;8.87;100.00;95758.81;1056770;28;20652;-50
2021/06/02 01:00:08;;;;;;;7.18;3.42;;;;;;;8.84;100.00;95756.44;1056706;28;20250;-52
2021/06/02 01:00:39;;;;;;;6.55;3.25;;;;;;;8.85;100.00;95763.31;1056833;28;20253;-49
2021/06/02 01:01:09;;;;;;;5.78;3.30;;;;;;;8.87;100.00;95760.59;1056435;28;20375;-50
2021/06/02 01:01:40;;;;;;;6.78;3.05;;;;;;;8.89;100.00;95756.09;1056836;28;20016;-49
2021/06/02 01:02:16;;;;;;;7.65;3.50;;;;;;;8.90;100.00;95760.41;1056688;28;20084;-49
2021/06/02 01:02:48;;;;;;;7.03;4.00;;;;;;;8.86;100.00;95757.16;1056852;28;20035;-50
2021/06/02 01:03:21;;;;;;;5.65;3.53;;;;;;;8.86;100.00;95757.16;1056428;28;20256;-50
2021/06/02 01:03:52;;;;;;;6.30;3.50;;;;;;;8.85;100.00;95757.25;1056653;28;20741;-50
2021/06/02 01:04:23;;;;;;;5.25;3.25;;;;;;;8.85;100.00;95758.09;1056740;28;20256;-49
2021/06/02 01:04:54;;;;;;;8.70;4.20;;;;;;;8.84;100.00;95760.78;1056845;28;20120;-50
2021/06/02 01:05:25;;;;;;;5.97;3.40;;;;;;;8.80;100.00;95760.16;1056209;28;20648;-50
2021/06/02 01:05:56;;;;;;;8.05;3.47;;;;;;;8.80;100.00;95759.31;1056487;28;20357;-51
2021/06/02 01:06:27;;;;;;;5.35;3.40;;;;;;;8.81;100.00;95758.41;1056415;28;20046;-50
2021/06/02 01:06:58;;;;;;;5.55;3.30;;;;;;;8.81;100.00;95758.41;1055030;28;20824;-48
2021/06/02 01:07:28;;;;;;;5.50;3.30;;;;;;;8.80;100.00;95760.16;1052358;28;20284;-51
2021/06/02 01:08:02;;;;;;;4.80;3.42;;;;;;;8.81;100.00;95758.41;1052613;28;20038;-49
2021/06/02 01:08:32;;;;;;;8.73;3.72;;;;;;;8.82;100.00;95754.84;1052636;28;20024;-48
2021/06/02 01:09:04;;;;;;;11.02;3.63;;;;;;;8.82;100.00;95755.69;1052666;28;20254;-49
2021/06/02 01:09:35;;;;;;;7.70;3.88;;;;;;;8.83;100.00;95756.53;1052010;28;20458;-50
2021/06/02 01:10:06;;;;;;;6.53;3.53;;;;;;;8.82;100.00;95755.69;1052332;28;20266;-50
2021/06/02 01:10:36;;;;;;;6.45;3.55;;;;;;;8.83;100.00;95753.91;1052258;28;20028;-49
2021/06/02 01:11:07;;;;;;;6.03;3.70;;;;;;;8.81;100.00;95761.00;1052353;28;20108;-52
2021/06/02 01:11:38;;;;;;;9.48;4.10;;;;;;;8.78;100.00;95763.81;1052430;28;20031;-50
2021/06/02 01:12:08;;;;;;;7.13;3.70;;;;;;;8.79;100.00;95760.28;1052591;28;20453;-50
2021/06/02 01:12:40;;;;;;;6.30;3.80;;;;;;;8.75;100.00;95762.25;1052583;28;20023;-49
2021/06/02 01:13:11;;;;;;;7.90;3.58;;;;;;;8.71;100.00;95756.41;1052541;28;20074;-51
2021/06/02 01:13:42;;;;;;;7.57;3.63;;;;;;;8.72;100.00;95754.63;1051983;28;20642;-50
2021/06/02 01:14:12;;;;;;;5.47;3.60;;;;;;;8.71;100.00;95759.00;1052524;28;20028;-49
2021/06/02 01:14:44;;;;;;;5.70;3.45;;;;;;;8.68;100.00;95760.97;1052587;28;20063;-52
2021/06/02 01:15:15;;;;;;;6.72;3.80;;;;;;;8.67;100.00;95759.28;1052512;28;20028;-50
2021/06/02 01:15:46;;;;;;;8.50;3.75;;;;;;;8.66;100.00;95760.25;1052242;28;20262;-49
2021/06/02 01:16:18;;;;;;;6.35;4.20;;;;;;;8.63;100.00;95761.28;1052616;28;20108;-49
2021/06/02 01:16:48;;;;;;;7.75;4.03;;;;;;;8.64;100.00;95757.72;1053456;28;20616;-52
2021/06/02 01:17:21;;;;;;;5.75;3.90;;;;;;;8.62;100.00;95759.63;1054014;28;20262;-50
2021/06/02 01:17:52;;;;;;;5.63;3.83;;;;;;;8.60;100.00;95756.25;1053691;28;20008;-49
2021/06/02 01:18:22;;;;;;;6.70;3.88;;;;;;;8.60;100.00;95752.81;1054002;28;20318;-50
2021/06/02 01:18:53;;;;;;;7.35;4.38;;;;;;;8.59;100.00;95757.19;1053917;28;20016;-50
2021/06/02 01:19:24;;;;;;;7.50;3.30;;;;;;;8.54;100.00;95757.50;1053891;28;20023;-50
2021/06/02 01:19:55;;;;;;;6.88;3.78;;;;;;;8.53;100.00;95760.22;1053415;28;20020;-50
2021/06/02 01:20:27;;;;;;;5.68;3.67;;;;;;;8.55;100.00;95755.72;1053705;28;20493;-49
2021/06/02 01:20:59;;;;;;;6.63;3.85;;;;;;;8.54;100.00;95759.28;1053699;28;20617;-52
2021/06/02 01:21:30;;;;;;;6.63;3.65;;;;;;;8.55;100.00;95758.34;1053573;28;20238;-49
2021/06/02 01:22:02;;;;;;;5.32;3.92;;;;;;;8.54;100.00;95759.28;1053492;28;20266;-52
2021/06/02 01:22:35;;;;;;;12.45;5.03;;;;;;;8.53;100.00;95765.44;1053626;28;20246;-48
2021/06/02 01:23:07;;;;;;;8.27;3.92;;;;;;;8.54;100.00;95761.91;1053567;28;20302;-51
2021/06/02 01:23:38;;;;;;;5.13;3.55;;;;;;;8.55;100.00;95763.56;1053639;28;20258;-49
2021/06/02 01:24:08;;;;;;;6.68;3.80;;;;;;;8.51;100.00;95768.13;1053780;28;20242;-48
2021/06/02 01:24:39;;;;;;;6.00;4.10;;;;;;;8.49;100.00;95772.63;1053971;28;20008;-49
2021/06/02 01:25:12;;;;;;;7.05;3.90;;;;;;;8.48;100.00;95768.31;1053857;28;20027;-50
2021/06/02 01:25:43;;;;;;;7.78;4.32;;;;;;;8.49;100.00;95766.56;1053697;28;20027;-49
2021/06/02 01:26:14;;;;;;;5.68;3.92;;;;;;;8.48;100.00;95767.50;1053385;28;20249;-51
2021/06/02 01:26:45;;;;;;;6.38;4.28;;;;;;;8.47;100.00;95761.44;1053559;28;20257;-49
2021/06/02 01:27:15;;;;;;;5.05;4.15;;;;;;;8.48;100.00;95767.50;1053595;28;20067;-50
2021/06/02 01:27:46;;;;;;;5.63;3.90;;;;;;;8.41;100.00;95758.34;1056503;28;20032;-50
2021/06/02 01:28:16;;;;;;;10.40;4.38;;;;;;;8.46;100.00;95767.59;1057575;28;20012;-49
2021/06/02 01:28:47;;;;;;;7.93;4.72;;;;;;;8.48;100.00;95764.88;1057837;28;20233;-49
2021/06/02 01:29:17;;;;;;;5.57;4.22;;;;;;;8.46;100.00;95774.59;1058051;28;20055;-51
2021/06/02 01:29:49;;;;;;;6.68;4.50;;;;;;;8.41;100.00;95777.47;1059072;28;20022;-51
2021/06/02 01:30:21;;;;;;;8.40;4.63;;;;;;;8.43;100.00;95772.16;1057958;27;20020;-51
2021/06/02 01:30:51;;;;;;;6.07;4.28;;;;;;;8.43;100.00;95777.41;1058155;27;20292;-49
2021/06/02 01:31:31;;;;;;;6.57;4.47;;;;;;;8.40;100.00;95775.78;1058228;27;20722;-51
2021/06/02 01:32:12;;;;;;;6.90;4.30;;;;;;;8.41;100.00;95772.25;1057862;28;20027;-50
2021/06/02 01:32:53;;;;;;;6.43;4.35;;;;;;;8.39;100.00;95776.75;1057647;28;20028;-50
2021/06/02 01:33:44;;;;;;;7.90;5.10;;;;;;;8.38;100.00;95778.50;1057696;28;20245;-50
2021/06/02 01:34:27;;;;;;;7.22;4.20;;;;;;;8.41;100.00;95779.25;1058172;27;20731;-50
2021/06/02 01:35:17;;;;;;;6.63;4.60;;;;;;;8.40;100.00;95778.41;1054137;27;20103;-51
2021/06/02 01:35:58;;;;;;;9.00;4.60;;;;;;;8.35;100.00;95778.72;1053913;28;20262;-49
2021/06/02 01:36:46;;;;;;;7.60;4.28;;;;;;;8.31;100.00;95774.59;1053739;28;20705;-49
2021/06/02 01:37:24;;;;;;;6.45;4.40;;;;;;;8.30;100.00;95775.56;1053946;28;20249;-49
2021/06/02 01:38:09;;;;;;;6.75;4.13;;;;;;;8.27;100.00;95778.34;1054039;28;20277;-49
2021/06/02 01:38:59;;;;;;;7.28;4.40;;;;;;;8.26;100.00;95774.09;1053741;28;20333;-49
2021/06/02 01:39:40;;;;;;;7.05;4.25;;;;;;;8.29;100.00;95779.09;1053913;28;20273;-49
2021/06/02 01:40:30;;;;;;;8.13;3.92;;;;;;;8.27;100.00;95770.53;1053962;28;20366;-49
2021/06/02 01:41:20;;;;;;;9.82;4.53;;;;;;;8.19;100.00;95775.41;1053772;28;20315;-49
2021/06/02 01:42:05;;;;;;;7.82;4.95;;;;;;;8.18;100.00;95773.72;1054040;28;20040;-49
2021/06/02 01:42:55;;;;;;;7.50;4.43;;;;;;;8.15;100.00;95776.53;1053812;28;20103;-49
2021/06/02 01:43:37;;;;;;;8.20;4.47;;;;;;;8.11;100.00;95765.47;1053837;28;20250;-51
2021/06/02 01:44:18;;;;;;;6.70;4.50;;;;;;;8.11;100.00;95772.47;1053886;28;20024;-51
2021/06/02 01:45:00;;;;;;;7.60;4.78;;;;;;;8.06;100.00;95770.13;1053759;28;20254;-48
2021/06/02 01:45:42;;;;;;;6.35;4.03;;;;;;;8.05;100.00;95765.00;1053994;28;20250;-52
2021/06/02 01:46:23;;;;;;;8.90;4.85;;;;;;;8.02;100.00;95775.66;1053904;28;20289;-49
2021/06/02 01:47:04;;;;;;;8.27;5.00;;;;;;;8.01;100.00;95776.56;1053650;28;20329;-49
2021/06/02 01:47:49;;;;;;;8.30;4.50;;;;;;;7.93;100.00;95771.84;1057221;28;20253;-51
2021/06/02 01:48:30;;;;;;;11.20;4.68;;;;;;;7.93;100.00;95772.66;1058071;27;20245;-49
2021/06/02 01:49:20;;;;;;;6.15;4.43;;;;;;;7.93;100.00;95777.06;1058163;27;20253;-52
2021/06/02 01:50:07;;;;;;;8.85;4.50;;;;;;;7.89;100.00;95780.78;1057726;28;20333;-49
2021/06/02 01:50:50;;;;;;;7.50;4.88;;;;;;;7.83;100.00;95771.56;1053648;28;20020;-49
2021/06/02 01:51:38;;;;;;;6.22;4.20;;;;;;;7.89;100.00;95775.56;1053377;28;20238;-52
2021/06/02 01:52:28;;;;;;;8.95;4.53;;;;;;;7.85;100.00;95768.88;1057884;28;20285;-49
2021/06/02 01:53:20;;;;;;;7.95;4.63;;;;;;;7.84;100.00;95772.41;1058223;27;20803;-49
2021/06/02 01:54:06;;;;;;;8.90;4.75;;;;;;;7.77;100.00;95761.50;1057930;27;20016;-51
2021/06/02 01:54:46;;;;;;;7.18;4.47;;;;;;;7.77;100.00;95766.72;1050318;27;20304;-50
2021/06/02 01:55:27;;;;;;;8.25;4.90;;;;;;;7.72;100.00;95759.19;1049473;28;20636;-51
2021/06/02 01:56:17;;;;;;;8.70;4.57;;;;;;;7.74;100.00;95767.75;1049393;28;20274;-48
2021/06/02 01:57:07;;;;;;;6.38;4.50;;;;;;;7.77;100.00;95766.72;1045354;28;20244;-50
2021/06/02 01:57:52;;;;;;;10.88;4.43;;;;;;;7.79;100.00;95777.91;1047332;28;20025;-49
2021/06/02 01:58:43;;;;;;;6.35;4.75;;;;;;;7.74;100.00;95767.75;1057183;28;20027;-51
2021/06/02 01:59:24;;;;;;;6.57;4.50;;;;;;;7.73;100.00;95768.72;1058210;27;20253;-49
2021/06/02 02:00:07;;;;;;;6.95;4.72;;;;;;;7.73;100.00;95768.72;1058087;27;20039;-52
2021/06/02 02:00:48;;;;;;;8.93;4.80;;;;;;;7.67;100.00;95773.44;1058061;27;20257;-50
2021/06/02 02:01:29;;;;;;;6.18;4.53;;;;;;;7.64;100.00;95774.47;1057957;27;20261;-49
2021/06/02 02:02:19;;;;;;;7.93;5.45;;;;;;;7.61;100.00;95769.44;1058040;27;20324;-51
2021/06/02 02:03:07;;;;;;;6.40;4.55;;;;;;;7.63;100.00;95777.19;1057798;28;20649;-50
2021/06/02 02:03:57;;;;;;;7.53;4.45;;;;;;;7.63;100.00;95774.56;1057276;28;20031;-51
2021/06/02 02:04:47;;;;;;;7.50;4.95;;;;;;;7.62;100.00;95771.13;1057880;28;20245;-50
2021/06/02 02:05:32;;;;;;;8.73;5.38;;;;;;;7.62;100.00;95773.75;1058127;27;20042;-51
2021/06/02 02:06:23;;;;;;;9.90;4.88;;;;;;;7.62;100.00;95780.72;1057940;27;20019;-50
2021/06/02 02:07:13;;;;;;;8.63;4.72;;;;;;;7.59;100.00;95774.75;1057372;27;20317;-52
2021/06/02 02:07:58;;;;;;;8.02;5.32;;;;;;;7.62;100.00;95775.50;1053503;28;20581;-51
2021/06/02 02:08:34;;;;;;;10.93;4.72;;;;;;;7.59;100.00;95772.16;1053689;28;20028;-50
2021/06/02 02:09:12;;;;;;;6.60;4.90;;;;;;;7.56;100.00;95772.34;1053609;28;20349;-51
2021/06/02 02:10:02;;;;;;;8.93;5.10;;;;;;;7.57;100.00;95773.19;1053807;28;20249;-51
2021/06/02 02:10:50;;;;;;;8.60;5.40;;;;;;;7.56;100.00;95781.91;1053922;28;20274;-51
2021/06/02 02:11:32;;;;;;;10.40;5.20;;;;;;;7.53;100.00;95780.34;1053913;28;20099;-52
2021/06/02 02:12:22;;;;;;;6.60;5.35;;;;;;;7.52;100.00;95783.88;1053690;28;20254;-50
2021/06/02 02:13:02;;;;;;;7.63;5.40;;;;;;;7.49;100.00;95783.22;1053982;28;20246;-53
2021/06/02 02:13:54;;;;;;;7.65;5.00;;;;;;;7.50;100.00;95779.69;1053700;28;20024;-52
2021/06/02 02:14:44;;;;;;;7.40;5.20;;;;;;;7.50;100.00;95784.91;1053861;28;20026;-51
2021/06/02 02:15:34;;;;;;;9.27;5.40;;;;;;;7.50;100.00;95785.75;1053893;28;20249;-51
2021/06/02 02:16:18;;;;;;;10.15;5.45;;;;;;;7.50;100.00;95787.50;1053777;28;20054;-50
2021/06/02 02:17:08;;;;;;;9.85;6.07;;;;;;;7.47;100.00;95790.28;1053955;28;20024;-51
2021/06/02 02:17:49;;;;;;;10.73;6.22;;;;;;;7.43;100.00;95784.44;1053796;28;20242;-49
2021/06/02 02:18:30;;;;;;;8.20;5.35;;;;;;;7.43;100.00;95784.44;1053627;28;20501;-50
2021/06/02 02:19:18;;;;;;;7.53;5.15;;;;;;;7.40;100.00;95782.84;1053785;28;20242;-49
2021/06/02 02:19:59;;;;;;;9.68;5.63;;;;;;;7.33;100.00;95780.72;1053918;28;20343;-50
2021/06/02 02:20:40;;;;;;;9.60;5.30;;;;;;;7.32;100.00;95779.88;1053744;28;20723;-49
2021/06/02 02:21:21;;;;;;;10.57;5.80;;;;;;;7.34;100.00;95779.81;1053772;28;20261;-48
2021/06/02 02:21:57;;;;;;;8.82;5.50;;;;;;;7.35;100.00;95786.69;1053932;28;20286;-49
2021/06/02 02:22:33;;;;;;;11.52;6.15;;;;;;;7.32;100.00;95782.50;1053634;28;20258;-50
2021/06/02 02:23:23;;;;;;;10.27;5.20;;;;;;;7.32;100.00;95792.06;1053967;28;20731;-49
2021/06/02 02:23:58;;;;;;;7.13;5.75;;;;;;;7.29;100.00;95790.47;1053283;28;20407;-50
2021/06/02 02:24:39;;;;;;;9.52;6.50;;;;;;;7.29;100.00;95787.06;1053570;28;20020;-49
2021/06/02 02:25:29;;;;;;;8.25;5.63;;;;;;;7.27;100.00;95786.31;1053861;28;20308;-49
2021/06/02 02:26:19;;;;;;;7.85;5.50;;;;;;;7.23;100.00;95782.22;1053798;28;20059;-50
2021/06/02 02:27:06;;;;;;;7.63;5.65;;;;;;;7.18;100.00;95785.06;1053675;28;20024;-49
2021/06/02 02:27:47;;;;;;;9.93;5.60;;;;;;;7.18;100.00;95795.50;1055157;28;20424;-50
2021/06/02 02:28:28;;;;;;;10.38;5.75;;;;;;;7.16;100.00;95790.38;1057094;28;20249;-50
2021/06/02 02:29:12;;;;;;;7.50;5.90;;;;;;;7.19;100.00;95786.75;1056922;28;20249;-50
2021/06/02 02:29:43;;;;;;;8.18;5.45;;;;;;;7.18;100.00;95792.91;1057393;28;20271;-51
2021/06/02 02:30:34;;;;;;;7.93;5.65;;;;;;;7.17;100.00;95797.28;1057265;27;20332;-50
2021/06/02 02:31:16;;;;;;;10.00;5.57;;;;;;;7.19;100.00;95789.38;1057295;28;20257;-49
2021/06/02 02:32:00;;;;;;;7.45;5.50;;;;;;;7.20;100.00;95788.44;1057370;28;20272;-52
2021/06/02 02:32:32;;;;;;;8.95;5.57;;;;;;;7.20;100.00;95796.25;1057401;28;20661;-51
2021/06/02 02:33:13;;;;;;;8.55;5.78;;;;;;;7.19;100.00;95797.19;1057215;28;20277;-50
2021/06/02 02:33:56;;;;;;;8.30;5.47;;;;;;;7.15;100.00;95788.72;1057174;28;20955;-49
2021/06/02 02:34:41;;;;;;;11.55;5.45;;;;;;;7.09;100.00;95796.03;1057355;28;20252;-48
2021/06/02 02:35:25;;;;;;;7.75;5.47;;;;;;;7.08;100.00;95794.38;1048505;28;20259;-49
2021/06/02 02:36:12;;;;;;;7.60;5.50;;;;;;;7.09;100.00;95796.03;1048650;28;20266;-50
2021/06/02 02:36:44;;;;;;;7.93;5.07;;;;;;;7.09;100.00;95799.47;1044515;28;20255;-50
2021/06/02 02:37:22;;;;;;;8.10;5.82;;;;;;;7.08;100.00;95797.00;1048442;28;20310;-50
2021/06/02 02:38:05;;;;;;;9.32;5.65;;;;;;;7.05;100.00;95800.59;1048705;28;20612;-50
2021/06/02 02:38:56;;;;;;;8.30;5.80;;;;;;;7.08;100.00;95795.22;1048873;28;20308;-49
2021/06/02 02:39:30;;;;;;;8.23;5.10;;;;;;;7.05;100.00;95797.97;1048924;28;20304;-49
2021/06/02 02:40:04;;;;;;;8.32;5.43;;;;;;;7.06;100.00;95799.69;1048870;28;20020;-50
2021/06/02 02:40:54;;;;;;;8.05;5.93;;;;;;;7.06;100.00;95798.81;1048950;28;20247;-49
2021/06/02 02:41:41;;;;;;;6.97;5.90;;;;;;;7.01;100.00;95793.88;1048833;28;20282;-50
2021/06/02 02:42:26;;;;;;;6.85;5.55;;;;;;;6.97;100.00;95793.22;1048893;28;20046;-50
2021/06/02 02:43:07;;;;;;;7.88;5.35;;;;;;;7.00;100.00;95802.63;1048974;28;20736;-50
2021/06/02 02:43:58;;;;;;;9.98;5.35;;;;;;;7.00;100.00;95798.28;1048625;28;20247;-50
2021/06/02 02:44:38;;;;;;;9.02;5.55;;;;;;;7.02;100.00;95803.41;1048865;28;20259;-50
2021/06/02 02:45:20;;;;;;;10.15;5.95;;;;;;;7.01;100.00;95804.31;1048846;28;20265;-49
2021/06/02 02:46:08;;;;;;;10.68;5.22;;;;;;;6.99;100.00;95804.41;1048496;28;20044;-50
2021/06/02 02:46:40;;;;;;;11.20;6.10;;;;;;;6.97;100.00;95803.66;1048681;28;20632;-49
2021/06/02 02:47:14;;;;;;;8.27;5.97;;;;;;;6.95;100.00;95802.06;1048639;28;20631;-49
2021/06/02 02:47:58;;;;;;;7.65;5.82;;;;;;;6.94;100.00;95798.59;1057212;28;20264;-49
2021/06/02 02:48:38;;;;;;;8.48;5.45;;;;;;;6.93;100.00;95801.31;1057363;28;20249;-50
2021/06/02 02:49:13;;;;;;;8.18;5.45;;;;;;;6.92;100.00;95799.63;1057351;28;20288;-49
2021/06/02 02:50:03;;;;;;;10.07;6.88;;;;;;;6.92;100.00;95797.03;1057039;28;20100;-50
2021/06/02 02:50:53;;;;;;;7.60;5.63;;;;;;;6.94;100.00;95800.38;1057422;28;20253;-50